createdAt,value
2023-03-28T00:01:10.024Z,0.89
2023-03-28T00:03:39.786Z,0.90
2023-03-28T00:06:11.319Z,0.93
2023-03-28T00:08:39.475Z,0.96
2023-03-28T00:11:19.656Z,0.96
2023-03-28T00:13:48.610Z,0.97
2023-03-28T00:16:15.237Z,0.99
2023-03-28T00:18:42.943Z,0.99
2023-03-28T00:21:25.090Z,0.99
2023-03-28T00:23:57.256Z,0.96
2023-03-28T00:26:26.575Z,0.90
2023-03-28T00:28:53.453Z,0.81
2023-03-28T00:31:20.758Z,0.69
2023-03-28T00:33:47.793Z,0.55
2023-03-28T00:36:18.468Z,0.45
2023-03-28T00:38:46.105Z,0.38
2023-03-28T00:41:15.997Z,0.30
2023-03-28T00:43:45.404Z,0.17
2023-03-28T00:46:22.500Z,0.06
2023-03-28T00:48:53.561Z,-0.01
2023-03-28T00:51:25.969Z,-0.06
2023-03-28T00:53:58.076Z,-0.11
2023-03-28T00:56:29.743Z,-0.07
2023-03-28T00:58:57.489Z,-0.04
2023-03-28T01:01:24.016Z,0.10
2023-03-28T01:04:02.299Z,0.11
2023-03-28T01:06:34.622Z,0.02
2023-03-28T01:09:04.795Z,-0.09
2023-03-28T01:11:32.794Z,-0.13
2023-03-28T01:14:02.232Z,-0.10
2023-03-28T01:16:30.862Z,-0.01
2023-03-28T01:19:02.662Z,0.01
2023-03-28T01:21:48.463Z,-0.01
2023-03-28T01:24:23.880Z,-0.07
2023-03-28T01:27:03.872Z,-0.13
2023-03-28T01:29:49.070Z,-0.05
2023-03-28T01:32:38.755Z,0.11
2023-03-28T01:35:24.485Z,0.18
2023-03-28T01:38:09.253Z,0.29
2023-03-28T01:41:08.252Z,0.40
2023-03-28T01:43:59.415Z,0.47
2023-03-28T01:46:33.587Z,0.51
2023-03-28T01:49:10.348Z,0.52
2023-03-28T01:52:05.143Z,0.51
2023-03-28T01:55:05.728Z,0.46
2023-03-28T01:58:05.431Z,0.45
2023-03-28T02:00:36.332Z,0.42
2023-03-28T02:03:11.597Z,0.38
2023-03-28T02:05:41.049Z,0.33
2023-03-28T02:08:11.392Z,0.25
2023-03-28T02:10:41.999Z,0.20
2023-03-28T02:13:15.898Z,0.13
2023-03-28T02:15:45.748Z,0.10
2023-03-28T02:18:23.674Z,0.10
2023-03-28T02:20:55.409Z,0.01
2023-03-28T02:23:26.991Z,-0.10
2023-03-28T02:25:53.702Z,-0.22
2023-03-28T02:28:21.878Z,-0.26
2023-03-28T02:30:48.832Z,-0.27
2023-03-28T02:33:40.649Z,-0.23
2023-03-28T02:36:29.196Z,-0.17
2023-03-28T02:39:20.852Z,-0.17
2023-03-28T02:42:09.188Z,-0.22
2023-03-28T02:45:13.251Z,-0.24
2023-03-28T02:48:17.545Z,-0.17
2023-03-28T02:51:04.157Z,-0.05
2023-03-28T02:53:34.381Z,0.02
2023-03-28T02:56:22.513Z,0.07
2023-03-28T02:58:54.917Z,0.10
2023-03-28T03:01:25.487Z,0.15
2023-03-28T03:03:52.766Z,0.18
2023-03-28T03:06:19.513Z,0.21
2023-03-28T03:08:46.324Z,0.24
2023-03-28T03:11:13.004Z,0.27
2023-03-28T03:13:39.546Z,0.32
2023-03-28T03:16:06.464Z,0.33
2023-03-28T03:18:34.865Z,0.32
2023-03-28T03:21:01.790Z,0.32
2023-03-28T03:23:28.946Z,0.35
2023-03-28T03:25:55.459Z,0.28
2023-03-28T03:28:21.949Z,0.27
2023-03-28T03:30:48.414Z,0.24
2023-03-28T03:33:16.656Z,0.23
2023-03-28T03:35:45.916Z,0.20
2023-03-28T03:38:13.520Z,0.21
2023-03-28T03:40:40.624Z,0.18
2023-03-28T03:43:07.323Z,0.18
2023-03-28T03:45:33.835Z,0.18
2023-03-28T03:48:00.444Z,0.17
2023-03-28T03:50:27.033Z,0.18
2023-03-28T03:52:53.598Z,0.16
2023-03-28T03:55:20.931Z,0.14
2023-03-28T03:57:47.547Z,0.12
2023-03-28T04:00:14.660Z,0.13
2023-03-28T04:02:41.336Z,0.11
2023-03-28T04:05:08.673Z,0.12
2023-03-28T04:07:35.712Z,0.10
2023-03-28T04:10:02.478Z,0.07
2023-03-28T04:12:29.034Z,0.04
2023-03-28T04:14:55.752Z,0.04
2023-03-28T04:17:23.412Z,-0.01
2023-03-28T04:19:50.028Z,-0.03
2023-03-28T04:22:18.310Z,0.00
2023-03-28T04:24:44.966Z,0.03
2023-03-28T04:27:12.083Z,0.06
2023-03-28T04:29:39.301Z,0.09
2023-03-28T04:32:06.605Z,0.06
2023-03-28T04:34:33.943Z,-0.05
2023-03-28T04:37:02.346Z,-0.17
2023-03-28T04:39:35.629Z,-0.23
2023-03-28T04:42:05.179Z,-0.31
2023-03-28T04:44:31.926Z,-0.37
2023-03-28T04:46:58.749Z,-0.43
2023-03-28T04:49:25.791Z,-0.42
2023-03-28T04:51:52.683Z,-0.44
2023-03-28T04:54:19.849Z,-0.43
2023-03-28T04:56:50.263Z,-0.44
2023-03-28T04:59:17.661Z,-0.52
2023-03-28T05:01:49.301Z,-0.48
2023-03-28T05:04:17.738Z,-0.45
2023-03-28T05:06:46.500Z,-0.49
2023-03-28T05:09:14.373Z,-0.53
2023-03-28T05:11:41.152Z,-0.57
2023-03-28T05:14:07.665Z,-0.61
2023-03-28T05:16:34.574Z,-0.67
2023-03-28T05:19:01.650Z,-0.71
2023-03-28T05:21:28.668Z,-0.74
2023-03-28T05:23:55.584Z,-0.76
2023-03-28T05:26:22.149Z,-0.75
2023-03-28T05:28:48.969Z,-0.74
2023-03-28T05:31:17.342Z,-0.74
2023-03-28T05:33:43.980Z,-0.74
2023-03-28T05:36:10.741Z,-0.70
2023-03-28T05:38:37.388Z,-0.71
2023-03-28T05:41:04.030Z,-0.71
2023-03-28T05:43:30.646Z,-0.70
2023-03-28T05:45:57.203Z,-0.60
2023-03-28T05:48:23.814Z,-0.42
2023-03-28T05:50:51.035Z,-0.30
2023-03-28T05:53:17.644Z,-0.13
2023-03-28T05:55:44.287Z,0.09
2023-03-28T05:58:10.828Z,0.19
2023-03-28T06:00:37.623Z,0.22
2023-03-28T06:03:06.150Z,0.26
2023-03-28T06:05:33.014Z,0.26
2023-03-28T06:07:59.577Z,0.24
2023-03-28T06:10:26.494Z,0.25
2023-03-28T06:12:53.003Z,0.32
2023-03-28T06:15:19.520Z,0.39
2023-03-28T06:17:46.177Z,0.50
2023-03-28T06:20:13.320Z,0.77
2023-03-28T06:22:40.021Z,1.46
2023-03-28T06:25:07.359Z,1.93
2023-03-28T06:27:34.649Z,2.63
2023-03-28T06:30:01.432Z,2.65
2023-03-28T06:32:28.556Z,2.84
2023-03-28T06:34:55.112Z,2.65
2023-03-28T06:37:21.601Z,2.44
2023-03-28T06:39:50.745Z,2.54
2023-03-28T06:42:17.475Z,2.51
2023-03-28T06:44:43.975Z,2.38
2023-03-28T06:47:10.534Z,2.45
2023-03-28T06:49:37.052Z,2.49
2023-03-28T06:52:03.605Z,2.38
2023-03-28T06:54:30.085Z,2.18
2023-03-28T06:56:56.616Z,1.94
2023-03-28T06:59:23.185Z,1.82
2023-03-28T07:01:49.732Z,1.70
2023-03-28T07:04:16.296Z,1.66
2023-03-28T07:06:42.857Z,1.67
2023-03-28T07:09:09.413Z,1.64
2023-03-28T07:11:35.987Z,1.70
2023-03-28T07:14:02.520Z,1.80
2023-03-28T07:16:29.030Z,1.93
2023-03-28T07:18:55.914Z,2.08
2023-03-28T07:21:22.704Z,2.41
2023-03-28T07:23:49.289Z,2.58
2023-03-28T07:26:16.586Z,2.72
2023-03-28T07:28:43.477Z,2.82
2023-03-28T07:31:10.468Z,2.88
2023-03-28T07:33:38.466Z,3.23
2023-03-28T07:36:09.682Z,3.27
2023-03-28T07:38:36.756Z,3.36
2023-03-28T07:41:03.745Z,3.54
2023-03-28T07:43:30.455Z,3.57
2023-03-28T07:46:06.396Z,3.60
2023-03-28T07:48:34.948Z,3.91
2023-03-28T07:51:02.202Z,4.24
2023-03-28T07:53:28.893Z,4.50
2023-03-28T07:55:56.269Z,4.36
2023-03-28T07:58:23.775Z,4.40
2023-03-28T08:00:50.657Z,4.42
2023-03-28T08:03:18.770Z,4.55
2023-03-28T08:05:49.771Z,4.55
2023-03-28T08:08:16.608Z,4.34
2023-03-28T08:10:46.065Z,4.25
2023-03-28T08:13:12.778Z,4.23
2023-03-28T08:15:39.402Z,4.52
2023-03-28T08:18:06.160Z,4.56
2023-03-28T08:20:33.493Z,4.38
2023-03-28T08:22:59.957Z,4.27
2023-03-28T08:25:26.466Z,4.19
2023-03-28T08:27:52.942Z,4.37
2023-03-28T08:30:19.460Z,4.53
2023-03-28T08:32:48.689Z,5.15
2023-03-28T08:35:15.730Z,6.06
2023-03-28T08:37:42.245Z,6.07
2023-03-28T08:40:14.889Z,5.90
2023-03-28T08:43:15.428Z,5.27
2023-03-28T08:45:55.656Z,5.24
2023-03-28T08:48:22.149Z,5.12
2023-03-28T08:50:51.226Z,4.65
2023-03-28T08:53:24.346Z,4.74
2023-03-28T08:55:53.770Z,5.31
2023-03-28T08:58:23.362Z,5.12
2023-03-28T09:00:52.101Z,5.19
2023-03-28T09:03:21.616Z,6.29
2023-03-28T09:06:29.487Z,7.91
2023-03-28T09:09:05.077Z,8.70
2023-03-28T09:11:54.274Z,10.02
2023-03-28T09:14:23.726Z,9.63
2023-03-28T09:17:27.829Z,11.57
2023-03-28T09:20:12.517Z,12.49
2023-03-28T09:22:56.082Z,14.08
2023-03-28T09:25:36.261Z,11.14
2023-03-28T09:28:14.823Z,9.82
2023-03-28T09:30:45.950Z,9.69
2023-03-28T09:33:18.594Z,9.21
2023-03-28T09:35:48.930Z,9.79
2023-03-28T09:38:26.415Z,11.06
2023-03-28T09:40:57.531Z,10.84
2023-03-28T09:43:47.415Z,10.26
2023-03-28T09:46:37.002Z,11.08
2023-03-28T09:49:03.680Z,11.27
2023-03-28T09:51:31.046Z,12.02
2023-03-28T09:53:57.598Z,11.99
2023-03-28T09:56:36.737Z,12.09
2023-03-28T09:59:05.075Z,12.70
2023-03-28T10:01:38.642Z,12.85
2023-03-28T10:04:14.432Z,13.96
2023-03-28T10:06:42.278Z,13.42
2023-03-28T10:09:18.196Z,12.61
2023-03-28T10:11:57.538Z,13.86
2023-03-28T10:14:42.183Z,15.35
2023-03-28T10:17:18.874Z,15.36
2023-03-28T10:19:47.433Z,14.93
2023-03-28T10:22:13.882Z,13.67
2023-03-28T10:24:41.182Z,12.39
2023-03-28T10:27:23.909Z,12.28
2023-03-28T10:29:53.482Z,13.27
2023-03-28T10:32:29.297Z,17.42
2023-03-28T10:35:22.040Z,19.50
2023-03-28T10:37:54.851Z,18.51
2023-03-28T10:40:21.333Z,19.87
2023-03-28T10:42:50.842Z,23.40
2023-03-28T10:45:40.578Z,24.72
2023-03-28T10:48:22.592Z,21.80
2023-03-28T10:50:52.857Z,18.98
2023-03-28T10:53:43.479Z,22.50
2023-03-28T10:56:29.489Z,25.96
2023-03-28T10:59:27.885Z,27.20
2023-03-28T11:02:50.000Z,27.42
2023-03-28T11:05:28.212Z,24.96
2023-03-28T11:08:00.107Z,26.07
2023-03-28T11:11:06.121Z,19.53
2023-03-28T11:13:57.766Z,22.50
2023-03-28T11:17:17.122Z,26.20
2023-03-28T11:19:49.453Z,20.50
2023-03-28T11:22:28.154Z,20.94
2023-03-28T11:25:19.544Z,19.24
2023-03-28T11:28:06.270Z,18.59
2023-03-28T11:30:35.420Z,20.47
2023-03-28T11:33:16.705Z,16.58
2023-03-28T11:35:54.624Z,13.96
2023-03-28T11:38:56.629Z,16.46
2023-03-28T11:41:30.035Z,18.41
2023-03-28T11:44:08.451Z,22.39
2023-03-28T11:46:40.753Z,22.34
2023-03-28T11:49:22.592Z,24.81
2023-03-28T11:52:04.326Z,26.22
2023-03-28T11:54:37.547Z,22.65
2023-03-28T11:57:35.076Z,17.64
2023-03-28T12:00:42.534Z,15.31
2023-03-28T12:03:29.020Z,17.10
2023-03-28T12:06:05.544Z,17.59
2023-03-28T12:08:47.586Z,19.98
2023-03-28T12:11:36.847Z,24.40
2023-03-28T12:14:12.630Z,26.08
2023-03-28T12:16:46.779Z,27.11
2023-03-28T12:19:18.421Z,25.73
2023-03-28T12:22:00.740Z,26.65
2023-03-28T12:24:36.980Z,22.38
2023-03-28T12:27:14.625Z,18.23
2023-03-28T12:29:59.383Z,19.40
2023-03-28T12:32:39.450Z,21.95
2023-03-28T12:35:14.551Z,23.63
2023-03-28T12:37:46.739Z,25.44
2023-03-28T12:40:13.544Z,23.51
2023-03-28T12:42:43.311Z,19.28
2023-03-28T12:45:20.123Z,17.00
2023-03-28T12:47:51.616Z,18.62
2023-03-28T12:50:41.267Z,22.32
2023-03-28T12:53:11.678Z,24.84
2023-03-28T12:55:46.502Z,24.97
2023-03-28T12:58:33.435Z,23.67
2023-03-28T13:01:09.230Z,21.17
2023-03-28T13:04:02.739Z,21.77
2023-03-28T13:06:47.790Z,23.73
2023-03-28T13:09:41.728Z,25.10
2023-03-28T13:12:46.948Z,25.54
2023-03-28T13:15:13.406Z,25.60
2023-03-28T13:17:47.846Z,27.34
2023-03-28T13:20:17.584Z,26.10
2023-03-28T13:23:04.645Z,26.46
2023-03-28T13:25:35.588Z,26.35
2023-03-28T13:28:11.359Z,25.02
2023-03-28T13:30:41.394Z,25.08
2023-03-28T13:33:23.136Z,25.84
2023-03-28T13:35:58.911Z,23.97
2023-03-28T13:38:28.143Z,22.92
2023-03-28T13:41:09.533Z,23.82
2023-03-28T13:43:47.360Z,23.64
2023-03-28T13:46:18.785Z,24.02
2023-03-28T13:49:01.229Z,23.65
2023-03-28T13:51:32.757Z,21.77
2023-03-28T13:53:59.467Z,20.45
2023-03-28T13:56:30.661Z,19.01
2023-03-28T13:58:59.066Z,17.39
2023-03-28T14:01:33.399Z,15.45
2023-03-28T14:03:59.996Z,13.51
2023-03-28T14:06:29.645Z,12.70
2023-03-28T14:09:01.078Z,12.49
2023-03-28T14:11:37.573Z,12.36
2023-03-28T14:14:11.747Z,11.83
2023-03-28T14:16:39.548Z,11.22
2023-03-28T14:19:07.586Z,11.00
2023-03-28T14:21:34.784Z,10.80
2023-03-28T14:24:07.059Z,10.62
2023-03-28T14:26:37.114Z,10.28
2023-03-28T14:29:05.632Z,10.17
2023-03-28T14:31:38.510Z,9.96
2023-03-28T14:34:25.437Z,9.63
2023-03-28T14:37:02.165Z,9.58
2023-03-28T14:39:31.372Z,9.45
2023-03-28T14:42:02.180Z,9.35
2023-03-28T14:44:30.277Z,9.26
2023-03-28T14:46:59.295Z,9.11
2023-03-28T14:49:27.128Z,8.76
2023-03-28T14:51:57.412Z,8.71
2023-03-28T14:54:28.639Z,8.65
2023-03-28T14:56:57.320Z,8.63
2023-03-28T14:59:32.305Z,8.60
2023-03-28T15:02:01.808Z,8.56
2023-03-28T15:04:30.167Z,8.53
2023-03-28T15:06:58.096Z,8.40
2023-03-28T15:09:28.993Z,8.26
2023-03-28T15:11:57.385Z,8.15
2023-03-28T15:14:30.828Z,8.09
2023-03-28T15:16:57.967Z,8.05
2023-03-28T15:19:35.477Z,7.91
2023-03-28T15:22:21.515Z,7.75
2023-03-28T15:24:48.181Z,7.69
2023-03-28T15:27:25.197Z,7.68
2023-03-28T15:29:51.854Z,7.64
2023-03-28T15:32:20.298Z,7.62
2023-03-28T15:34:55.185Z,7.58
2023-03-28T15:37:24.722Z,7.49
2023-03-28T15:39:52.659Z,7.42
2023-03-28T15:42:19.171Z,7.43
2023-03-28T15:45:11.936Z,7.43
2023-03-28T15:47:38.769Z,7.41
2023-03-28T15:50:08.174Z,7.39
2023-03-28T15:52:35.270Z,7.31
2023-03-28T15:55:03.248Z,7.25
2023-03-28T15:57:30.823Z,7.18
2023-03-28T15:59:58.705Z,7.06
2023-03-28T16:02:25.491Z,6.99
2023-03-28T16:05:06.942Z,6.90
2023-03-28T16:07:34.672Z,6.74
2023-03-28T16:10:01.242Z,6.66
2023-03-28T16:12:28.142Z,6.53
2023-03-28T16:14:55.342Z,6.37
2023-03-28T16:17:26.467Z,6.29
2023-03-28T16:19:53.071Z,6.25
2023-03-28T16:22:21.084Z,6.19
2023-03-28T16:24:49.591Z,6.10
2023-03-28T16:27:16.732Z,6.01
2023-03-28T16:29:43.712Z,5.99
2023-03-28T16:32:12.758Z,5.92
2023-03-28T16:34:40.184Z,5.87
2023-03-28T16:37:08.931Z,5.80
2023-03-28T16:39:37.501Z,5.73
2023-03-28T16:42:05.393Z,5.69
2023-03-28T16:44:32.497Z,5.61
2023-03-28T16:47:00.178Z,5.55
2023-03-28T16:49:26.754Z,5.47
2023-03-28T16:51:54.816Z,5.42
2023-03-28T16:54:24.626Z,5.40
2023-03-28T16:56:51.224Z,5.36
2023-03-28T16:59:17.833Z,5.33
2023-03-28T17:01:46.348Z,5.28
2023-03-28T17:04:13.282Z,5.22
2023-03-28T17:06:39.930Z,5.13
2023-03-28T17:09:06.753Z,5.06
2023-03-28T17:11:33.618Z,5.00
2023-03-28T17:14:00.621Z,4.97
2023-03-28T17:16:27.469Z,4.90
2023-03-28T17:18:54.068Z,4.82
2023-03-28T17:21:20.598Z,4.75
2023-03-28T17:23:48.700Z,4.66
2023-03-28T17:26:16.264Z,4.56
2023-03-28T17:28:43.522Z,4.52
2023-03-28T17:31:17.055Z,4.42
2023-03-28T17:33:44.872Z,4.32
2023-03-28T17:36:26.294Z,4.21
2023-03-28T17:38:57.705Z,4.10
2023-03-28T17:41:25.550Z,4.03
2023-03-28T17:43:53.110Z,3.89
2023-03-28T17:46:19.833Z,3.76
2023-03-28T17:48:46.571Z,3.64
2023-03-28T17:51:13.795Z,3.54
2023-03-28T17:53:41.733Z,3.47
2023-03-28T17:56:09.771Z,3.41
2023-03-28T17:58:37.615Z,3.32
2023-03-28T18:01:08.457Z,3.22
2023-03-28T18:03:35.304Z,3.16
2023-03-28T18:06:02.359Z,3.09
2023-03-28T18:08:30.310Z,3.04
2023-03-28T18:11:10.854Z,2.96
2023-03-28T18:13:38.347Z,2.89
2023-03-28T18:16:10.467Z,2.82
2023-03-28T18:18:37.597Z,2.75
2023-03-28T18:21:04.334Z,2.71
2023-03-28T18:23:31.882Z,2.63
2023-03-28T18:25:58.622Z,2.60
2023-03-28T18:28:25.532Z,2.55
2023-03-28T18:30:53.122Z,2.47
2023-03-28T18:33:22.068Z,2.37
2023-03-28T18:35:49.234Z,2.26
2023-03-28T18:38:15.846Z,2.18
2023-03-28T18:40:42.955Z,2.11
2023-03-28T18:43:09.858Z,2.08
2023-03-28T18:45:36.810Z,2.09
2023-03-28T18:48:04.050Z,2.09
2023-03-28T18:50:31.339Z,2.06
2023-03-28T18:52:58.099Z,2.06
2023-03-28T18:55:24.866Z,1.99
2023-03-28T18:57:52.740Z,1.93
2023-03-28T19:00:19.918Z,1.87
2023-03-28T19:02:47.926Z,1.80
2023-03-28T19:05:16.585Z,1.79
2023-03-28T19:07:44.718Z,1.71
2023-03-28T19:10:13.382Z,1.58
2023-03-28T19:12:41.098Z,1.48
2023-03-28T19:15:08.821Z,1.39
2023-03-28T19:17:36.473Z,1.29
2023-03-28T19:20:07.796Z,1.20
2023-03-28T19:22:35.172Z,1.19
2023-03-28T19:25:01.825Z,1.08
2023-03-28T19:27:28.178Z,1.03
2023-03-28T19:29:54.570Z,1.02
2023-03-28T19:32:20.933Z,0.85
2023-03-28T19:34:47.329Z,0.75
2023-03-28T19:37:14.002Z,0.68
2023-03-28T19:39:40.382Z,0.59
2023-03-28T19:42:06.757Z,0.53
2023-03-28T19:44:33.242Z,0.56
2023-03-28T19:46:59.671Z,0.60
2023-03-28T19:49:26.176Z,0.56
2023-03-28T19:51:55.550Z,0.49
2023-03-28T19:54:22.048Z,0.40
2023-03-28T19:56:48.690Z,0.27
2023-03-28T19:59:15.133Z,0.18
2023-03-28T20:01:41.586Z,0.10
2023-03-28T20:04:08.161Z,0.03
2023-03-28T20:06:34.610Z,-0.03
2023-03-28T20:09:01.129Z,-0.06
2023-03-28T20:11:27.836Z,-0.09
2023-03-28T20:13:54.209Z,-0.15
2023-03-28T20:16:20.813Z,-0.21
2023-03-28T20:18:48.285Z,-0.26
2023-03-28T20:21:14.803Z,-0.31
2023-03-28T20:23:41.513Z,-0.37
2023-03-28T20:26:12.179Z,-0.38
2023-03-28T20:28:39.986Z,-0.40
2023-03-28T20:31:06.406Z,-0.45
2023-03-28T20:33:32.804Z,-0.41
2023-03-28T20:35:59.239Z,-0.28
2023-03-28T20:38:26.106Z,-0.27
2023-03-28T20:40:52.584Z,-0.31
2023-03-28T20:43:22.066Z,-0.36
2023-03-28T20:45:53.528Z,-0.36
2023-03-28T20:48:21.899Z,-0.32
2023-03-28T20:50:48.705Z,-0.27
2023-03-28T20:53:15.699Z,-0.27
2023-03-28T20:55:43.287Z,-0.28
2023-03-28T20:58:09.643Z,-0.30
2023-03-28T21:00:36.070Z,-0.29
2023-03-28T21:03:03.710Z,-0.30
2023-03-28T21:05:30.344Z,-0.28
2023-03-28T21:07:58.250Z,-0.24
2023-03-28T21:10:24.612Z,-0.20
2023-03-28T21:12:51.610Z,-0.15
2023-03-28T21:15:18.169Z,-0.13
2023-03-28T21:17:47.677Z,-0.09
2023-03-28T21:20:14.099Z,-0.12
2023-03-28T21:22:40.540Z,-0.09
2023-03-28T21:25:07.608Z,-0.04
2023-03-28T21:27:34.734Z,-0.03
2023-03-28T21:30:04.210Z,0.02
2023-03-28T21:32:33.071Z,0.07
2023-03-28T21:34:59.960Z,0.11
2023-03-28T21:37:26.343Z,0.07
2023-03-28T21:39:52.862Z,0.00
2023-03-28T21:42:19.279Z,0.01
2023-03-28T21:44:45.963Z,0.02
2023-03-28T21:47:13.134Z,-0.04
2023-03-28T21:49:39.520Z,-0.08
2023-03-28T21:52:06.001Z,-0.06
2023-03-28T21:54:32.454Z,0.02
2023-03-28T21:56:59.164Z,0.07
2023-03-28T21:59:26.324Z,0.05
2023-03-28T22:01:52.776Z,0.03
2023-03-28T22:04:19.233Z,0.03
2023-03-28T22:06:45.610Z,-0.01
2023-03-28T22:09:12.205Z,-0.04
2023-03-28T22:11:39.400Z,-0.06
2023-03-28T22:14:06.216Z,-0.06
2023-03-28T22:16:35.011Z,-0.06
2023-03-28T22:19:01.658Z,-0.06
2023-03-28T22:21:30.209Z,-0.08
2023-03-28T22:23:57.167Z,-0.07
2023-03-28T22:26:27.203Z,-0.06
2023-03-28T22:28:54.583Z,-0.02
2023-03-28T22:31:21.612Z,0.01
2023-03-28T22:33:48.073Z,0.05
2023-03-28T22:36:14.611Z,0.06
2023-03-28T22:38:41.153Z,0.07
2023-03-28T22:41:07.780Z,0.09
2023-03-28T22:43:34.631Z,0.10
2023-03-28T22:46:01.065Z,0.11
2023-03-28T22:48:29.995Z,0.13
2023-03-28T22:50:57.191Z,0.16
2023-03-28T22:53:25.988Z,0.15
2023-03-28T22:55:52.366Z,0.11
2023-03-28T22:58:19.183Z,0.15
2023-03-28T23:00:46.423Z,0.16
2023-03-28T23:03:13.162Z,0.17
2023-03-28T23:05:39.662Z,0.15
2023-03-28T23:08:06.359Z,0.16
2023-03-28T23:10:33.333Z,0.16
2023-03-28T23:12:59.999Z,0.20
2023-03-28T23:15:27.118Z,0.16
2023-03-28T23:17:53.646Z,0.21
2023-03-28T23:20:20.159Z,0.26
2023-03-28T23:22:47.476Z,0.29
2023-03-28T23:25:15.177Z,0.27
2023-03-28T23:27:42.087Z,0.27
2023-03-28T23:30:10.168Z,0.29
2023-03-28T23:32:36.780Z,0.32
2023-03-28T23:35:03.729Z,0.32
2023-03-28T23:37:30.283Z,0.28
2023-03-28T23:39:57.425Z,0.24
2023-03-28T23:42:24.795Z,0.25
2023-03-28T23:44:51.800Z,0.27
2023-03-28T23:47:20.371Z,0.31
2023-03-28T23:49:47.117Z,0.33
2023-03-28T23:52:13.510Z,0.31
2023-03-28T23:54:40.000Z,0.29
2023-03-28T23:57:06.863Z,0.32
2023-03-28T23:59:33.357Z,0.33
